sensor_id;sensor_type;location;lat;lon;timestamp;P1;durP1;ratioP1;P2;durP2;ratioP2
9150;SDS011;4610;50.006;7.490;2023-04-15T00:00:42;3.27;;;1.40;;
9150;SDS011;4610;50.006;7.490;2023-04-15T00:03:09;2.57;;;1.80;;
9150;SDS011;4610;50.006;7.490;2023-04-15T00:05:36;4.17;;;1.60;;
9150;SDS011;4610;50.006;7.490;2023-04-15T00:08:04;1.90;;;1.30;;
9150;SDS011;4610;50.006;7.490;2023-04-15T00:10:32;1.60;;;1.27;;
9150;SDS011;4610;50.006;7.490;2023-04-15T00:12:58;6.73;;;1.30;;
9150;SDS011;4610;50.006;7.490;2023-04-15T00:15:26;2.37;;;1.20;;
9150;SDS011;4610;50.006;7.490;2023-04-15T00:17:52;1.50;;;1.33;;
9150;SDS011;4610;50.006;7.490;2023-04-15T00:20:19;3.00;;;1.50;;
9150;SDS011;4610;50.006;7.490;2023-04-15T00:22:46;4.70;;;1.60;;
9150;SDS011;4610;50.006;7.490;2023-04-15T00:25:14;2.10;;;1.53;;
9150;SDS011;4610;50.006;7.490;2023-04-15T00:27:42;2.83;;;1.47;;
9150;SDS011;4610;50.006;7.490;2023-04-15T00:30:08;2.53;;;1.50;;
9150;SDS011;4610;50.006;7.490;2023-04-15T00:32:36;2.17;;;1.23;;
9150;SDS011;4610;50.006;7.490;2023-04-15T00:35:03;3.13;;;1.47;;
9150;SDS011;4610;50.006;7.490;2023-04-15T00:37:30;3.23;;;1.40;;
9150;SDS011;4610;50.006;7.490;2023-04-15T00:39:59;1.30;;;1.20;;
9150;SDS011;4610;50.006;7.490;2023-04-15T00:42:28;2.97;;;1.20;;
9150;SDS011;4610;50.006;7.490;2023-04-15T00:44:55;2.17;;;1.40;;
9150;SDS011;4610;50.006;7.490;2023-04-15T00:47:22;4.00;;;1.60;;
9150;SDS011;4610;50.006;7.490;2023-04-15T00:49:49;3.57;;;1.30;;
9150;SDS011;4610;50.006;7.490;2023-04-15T00:52:16;4.33;;;1.90;;
9150;SDS011;4610;50.006;7.490;2023-04-15T00:54:42;2.80;;;1.20;;
9150;SDS011;4610;50.006;7.490;2023-04-15T00:57:09;3.73;;;1.60;;
9150;SDS011;4610;50.006;7.490;2023-04-15T00:59:37;5.20;;;1.40;;
9150;SDS011;4610;50.006;7.490;2023-04-15T01:02:04;5.83;;;1.50;;
9150;SDS011;4610;50.006;7.490;2023-04-15T01:04:32;2.40;;;1.23;;
9150;SDS011;4610;50.006;7.490;2023-04-15T01:06:58;1.90;;;1.53;;
9150;SDS011;4610;50.006;7.490;2023-04-15T01:09:26;4.13;;;1.30;;
9150;SDS011;4610;50.006;7.490;2023-04-15T01:11:53;2.87;;;1.20;;
9150;SDS011;4610;50.006;7.490;2023-04-15T01:14:20;2.30;;;1.30;;
9150;SDS011;4610;50.006;7.490;2023-04-15T01:16:48;1.40;;;1.10;;
9150;SDS011;4610;50.006;7.490;2023-04-15T01:19:15;4.50;;;1.37;;
9150;SDS011;4610;50.006;7.490;2023-04-15T01:21:42;3.27;;;1.37;;
9150;SDS011;4610;50.006;7.490;2023-04-15T01:24:10;2.17;;;1.53;;
9150;SDS011;4610;50.006;7.490;2023-04-15T01:26:40;2.43;;;1.17;;
9150;SDS011;4610;50.006;7.490;2023-04-15T01:29:07;4.80;;;1.40;;
9150;SDS011;4610;50.006;7.490;2023-04-15T01:31:33;1.80;;;1.20;;
9150;SDS011;4610;50.006;7.490;2023-04-15T01:34:00;1.27;;;1.03;;
9150;SDS011;4610;50.006;7.490;2023-04-15T01:36:27;7.73;;;1.67;;
9150;SDS011;4610;50.006;7.490;2023-04-15T01:38:55;3.30;;;1.27;;
9150;SDS011;4610;50.006;7.490;2023-04-15T01:41:24;3.53;;;1.67;;
9150;SDS011;4610;50.006;7.490;2023-04-15T01:43:53;4.20;;;1.93;;
9150;SDS011;4610;50.006;7.490;2023-04-15T01:46:21;2.80;;;1.83;;
9150;SDS011;4610;50.006;7.490;2023-04-15T01:48:47;3.47;;;1.90;;
9150;SDS011;4610;50.006;7.490;2023-04-15T01:51:14;3.27;;;2.00;;
9150;SDS011;4610;50.006;7.490;2023-04-15T01:53:41;3.17;;;1.90;;
9150;SDS011;4610;50.006;7.490;2023-04-15T01:56:08;4.80;;;1.80;;
9150;SDS011;4610;50.006;7.490;2023-04-15T01:58:35;4.60;;;1.50;;
9150;SDS011;4610;50.006;7.490;2023-04-15T02:01:03;4.07;;;1.43;;
9150;SDS011;4610;50.006;7.490;2023-04-15T02:03:30;2.53;;;1.30;;
9150;SDS011;4610;50.006;7.490;2023-04-15T02:05:56;2.87;;;1.40;;
9150;SDS011;4610;50.006;7.490;2023-04-15T02:08:23;3.33;;;1.40;;
9150;SDS011;4610;50.006;7.490;2023-04-15T02:10:50;1.97;;;1.43;;
9150;SDS011;4610;50.006;7.490;2023-04-15T02:13:17;3.53;;;1.60;;
9150;SDS011;4610;50.006;7.490;2023-04-15T02:15:46;3.00;;;1.50;;
9150;SDS011;4610;50.006;7.490;2023-04-15T02:18:15;2.53;;;1.33;;
9150;SDS011;4610;50.006;7.490;2023-04-15T02:20:42;1.80;;;1.40;;
9150;SDS011;4610;50.006;7.490;2023-04-15T02:23:09;2.43;;;1.60;;
9150;SDS011;4610;50.006;7.490;2023-04-15T02:25:36;3.77;;;1.70;;
9150;SDS011;4610;50.006;7.490;2023-04-15T02:28:03;6.60;;;1.80;;
9150;SDS011;4610;50.006;7.490;2023-04-15T02:30:31;3.30;;;1.77;;
9150;SDS011;4610;50.006;7.490;2023-04-15T02:32:58;3.33;;;2.07;;
9150;SDS011;4610;50.006;7.490;2023-04-15T02:35:27;3.20;;;1.60;;
9150;SDS011;4610;50.006;7.490;2023-04-15T02:37:54;7.13;;;1.83;;
9150;SDS011;4610;50.006;7.490;2023-04-15T02:40:21;3.43;;;1.40;;
9150;SDS011;4610;50.006;7.490;2023-04-15T02:42:47;2.13;;;1.10;;
9150;SDS011;4610;50.006;7.490;2023-04-15T02:45:14;2.50;;;1.40;;
9150;SDS011;4610;50.006;7.490;2023-04-15T02:47:43;3.70;;;1.50;;
9150;SDS011;4610;50.006;7.490;2023-04-15T02:50:11;2.17;;;1.30;;
9150;SDS011;4610;50.006;7.490;2023-04-15T02:52:40;4.13;;;1.40;;
9150;SDS011;4610;50.006;7.490;2023-04-15T02:55:08;1.43;;;1.07;;
9150;SDS011;4610;50.006;7.490;2023-04-15T02:57:35;2.43;;;1.23;;
9150;SDS011;4610;50.006;7.490;2023-04-15T03:00:03;2.40;;;1.57;;
9150;SDS011;4610;50.006;7.490;2023-04-15T03:02:33;2.27;;;1.30;;
9150;SDS011;4610;50.006;7.490;2023-04-15T03:05:00;2.13;;;1.30;;
9150;SDS011;4610;50.006;7.490;2023-04-15T03:07:28;3.87;;;1.47;;
9150;SDS011;4610;50.006;7.490;2023-04-15T03:09:56;6.43;;;1.40;;
9150;SDS011;4610;50.006;7.490;2023-04-15T03:12:23;1.90;;;1.40;;
9150;SDS011;4610;50.006;7.490;2023-04-15T03:14:49;4.67;;;1.60;;
9150;SDS011;4610;50.006;7.490;2023-04-15T03:17:16;2.47;;;1.37;;
9150;SDS011;4610;50.006;7.490;2023-04-15T03:19:43;1.93;;;1.23;;
9150;SDS011;4610;50.006;7.490;2023-04-15T03:22:10;4.33;;;1.30;;
9150;SDS011;4610;50.006;7.490;2023-04-15T03:24:36;3.40;;;1.43;;
9150;SDS011;4610;50.006;7.490;2023-04-15T03:27:04;4.00;;;1.83;;
9150;SDS011;4610;50.006;7.490;2023-04-15T03:29:32;2.10;;;1.40;;
9150;SDS011;4610;50.006;7.490;2023-04-15T03:31:58;5.17;;;1.57;;
9150;SDS011;4610;50.006;7.490;2023-04-15T03:34:25;3.80;;;1.60;;
9150;SDS011;4610;50.006;7.490;2023-04-15T03:36:52;2.80;;;1.67;;
9150;SDS011;4610;50.006;7.490;2023-04-15T03:39:19;2.90;;;1.47;;
9150;SDS011;4610;50.006;7.490;2023-04-15T03:41:45;2.80;;;1.57;;
9150;SDS011;4610;50.006;7.490;2023-04-15T03:44:14;4.30;;;1.40;;
9150;SDS011;4610;50.006;7.490;2023-04-15T03:46:41;2.27;;;1.30;;
9150;SDS011;4610;50.006;7.490;2023-04-15T03:49:07;2.47;;;1.43;;
9150;SDS011;4610;50.006;7.490;2023-04-15T03:51:34;1.93;;;1.30;;
9150;SDS011;4610;50.006;7.490;2023-04-15T03:54:01;3.33;;;1.50;;
9150;SDS011;4610;50.006;7.490;2023-04-15T03:56:28;6.37;;;1.47;;
9150;SDS011;4610;50.006;7.490;2023-04-15T03:58:55;2.73;;;1.40;;
9150;SDS011;4610;50.006;7.490;2023-04-15T04:01:23;1.70;;;1.20;;
9150;SDS011;4610;50.006;7.490;2023-04-15T04:03:49;1.83;;;1.40;;
9150;SDS011;4610;50.006;7.490;2023-04-15T04:06:16;2.17;;;1.17;;
9150;SDS011;4610;50.006;7.490;2023-04-15T04:08:43;3.83;;;1.47;;
9150;SDS011;4610;50.006;7.490;2023-04-15T04:11:10;1.83;;;1.20;;
9150;SDS011;4610;50.006;7.490;2023-04-15T04:13:37;6.37;;;1.20;;
9150;SDS011;4610;50.006;7.490;2023-04-15T04:16:04;1.73;;;1.43;;
9150;SDS011;4610;50.006;7.490;2023-04-15T04:18:32;1.40;;;1.30;;
9150;SDS011;4610;50.006;7.490;2023-04-15T04:20:59;2.50;;;1.33;;
9150;SDS011;4610;50.006;7.490;2023-04-15T04:23:26;2.23;;;1.43;;
9150;SDS011;4610;50.006;7.490;2023-04-15T04:25:53;1.97;;;1.10;;
9150;SDS011;4610;50.006;7.490;2023-04-15T04:28:19;2.57;;;1.13;;
9150;SDS011;4610;50.006;7.490;2023-04-15T04:30:46;1.37;;;1.10;;
9150;SDS011;4610;50.006;7.490;2023-04-15T04:33:13;2.47;;;1.20;;
9150;SDS011;4610;50.006;7.490;2023-04-15T04:35:41;2.80;;;1.47;;
9150;SDS011;4610;50.006;7.490;2023-04-15T04:38:07;2.27;;;1.13;;
9150;SDS011;4610;50.006;7.490;2023-04-15T04:40:34;2.53;;;1.20;;
9150;SDS011;4610;50.006;7.490;2023-04-15T04:43:01;3.03;;;1.50;;
9150;SDS011;4610;50.006;7.490;2023-04-15T04:45:28;1.63;;;1.17;;
9150;SDS011;4610;50.006;7.490;2023-04-15T04:47:54;2.43;;;1.23;;
9150;SDS011;4610;50.006;7.490;2023-04-15T04:50:21;1.73;;;1.20;;
9150;SDS011;4610;50.006;7.490;2023-04-15T04:52:49;1.73;;;1.23;;
9150;SDS011;4610;50.006;7.490;2023-04-15T04:55:16;2.53;;;1.30;;
9150;SDS011;4610;50.006;7.490;2023-04-15T04:57:43;5.33;;;1.40;;
9150;SDS011;4610;50.006;7.490;2023-04-15T05:00:11;2.60;;;1.40;;
9150;SDS011;4610;50.006;7.490;2023-04-15T05:02:38;2.80;;;1.27;;
9150;SDS011;4610;50.006;7.490;2023-04-15T05:05:06;1.53;;;1.17;;
9150;SDS011;4610;50.006;7.490;2023-04-15T05:07:33;4.53;;;1.20;;
9150;SDS011;4610;50.006;7.490;2023-04-15T05:10:01;2.10;;;1.13;;
9150;SDS011;4610;50.006;7.490;2023-04-15T05:12:28;2.43;;;1.30;;
9150;SDS011;4610;50.006;7.490;2023-04-15T05:14:55;5.77;;;2.60;;
9150;SDS011;4610;50.006;7.490;2023-04-15T05:17:22;13.10;;;7.87;;
9150;SDS011;4610;50.006;7.490;2023-04-15T05:19:49;16.67;;;9.30;;
9150;SDS011;4610;50.006;7.490;2023-04-15T05:22:15;11.87;;;5.70;;
9150;SDS011;4610;50.006;7.490;2023-04-15T05:24:42;11.13;;;5.37;;
9150;SDS011;4610;50.006;7.490;2023-04-15T05:27:10;8.03;;;3.80;;
9150;SDS011;4610;50.006;7.490;2023-04-15T05:29:37;13.10;;;4.80;;
9150;SDS011;4610;50.006;7.490;2023-04-15T05:32:04;8.57;;;3.40;;
9150;SDS011;4610;50.006;7.490;2023-04-15T05:34:31;3.73;;;1.80;;
9150;SDS011;4610;50.006;7.490;2023-04-15T05:36:58;4.30;;;1.90;;
9150;SDS011;4610;50.006;7.490;2023-04-15T05:39:24;3.33;;;1.50;;
9150;SDS011;4610;50.006;7.490;2023-04-15T05:41:51;2.43;;;1.50;;
9150;SDS011;4610;50.006;7.490;2023-04-15T05:44:19;4.47;;;1.80;;
9150;SDS011;4610;50.006;7.490;2023-04-15T05:46:46;3.70;;;1.80;;
9150;SDS011;4610;50.006;7.490;2023-04-15T05:49:13;3.50;;;1.87;;
9150;SDS011;4610;50.006;7.490;2023-04-15T05:51:40;1.57;;;1.30;;
9150;SDS011;4610;50.006;7.490;2023-04-15T05:54:06;3.57;;;1.50;;
9150;SDS011;4610;50.006;7.490;2023-04-15T05:56:33;4.43;;;2.10;;
9150;SDS011;4610;50.006;7.490;2023-04-15T05:59:00;4.37;;;2.40;;
9150;SDS011;4610;50.006;7.490;2023-04-15T06:01:29;6.00;;;2.30;;
9150;SDS011;4610;50.006;7.490;2023-04-15T06:03:56;5.27;;;2.90;;
9150;SDS011;4610;50.006;7.490;2023-04-15T06:06:22;5.70;;;3.40;;
9150;SDS011;4610;50.006;7.490;2023-04-15T06:08:49;8.30;;;3.30;;
9150;SDS011;4610;50.006;7.490;2023-04-15T06:11:16;3.73;;;2.40;;
9150;SDS011;4610;50.006;7.490;2023-04-15T06:13:43;7.03;;;3.20;;
9150;SDS011;4610;50.006;7.490;2023-04-15T06:16:09;9.97;;;4.27;;
9150;SDS011;4610;50.006;7.490;2023-04-15T06:18:37;7.23;;;3.57;;
9150;SDS011;4610;50.006;7.490;2023-04-15T06:21:04;7.57;;;3.47;;
9150;SDS011;4610;50.006;7.490;2023-04-15T06:23:33;6.43;;;3.00;;
9150;SDS011;4610;50.006;7.490;2023-04-15T06:26:00;5.83;;;3.20;;
9150;SDS011;4610;50.006;7.490;2023-04-15T06:28:26;11.07;;;4.70;;
9150;SDS011;4610;50.006;7.490;2023-04-15T06:30:53;3.37;;;2.13;;
9150;SDS011;4610;50.006;7.490;2023-04-15T06:33:20;6.27;;;2.70;;
9150;SDS011;4610;50.006;7.490;2023-04-15T06:35:48;10.57;;;3.23;;
9150;SDS011;4610;50.006;7.490;2023-04-15T06:38:15;5.83;;;3.33;;
9150;SDS011;4610;50.006;7.490;2023-04-15T06:40:42;6.07;;;3.07;;
9150;SDS011;4610;50.006;7.490;2023-04-15T06:43:08;9.97;;;2.80;;
9150;SDS011;4610;50.006;7.490;2023-04-15T06:45:35;7.17;;;2.50;;
9150;SDS011;4610;50.006;7.490;2023-04-15T06:48:02;4.90;;;2.77;;
9150;SDS011;4610;50.006;7.490;2023-04-15T06:50:29;3.33;;;2.00;;
9150;SDS011;4610;50.006;7.490;2023-04-15T06:52:58;3.77;;;1.90;;
9150;SDS011;4610;50.006;7.490;2023-04-15T06:55:24;4.00;;;1.80;;
9150;SDS011;4610;50.006;7.490;2023-04-15T06:57:51;2.43;;;1.80;;
9150;SDS011;4610;50.006;7.490;2023-04-15T07:00:18;4.17;;;1.70;;
9150;SDS011;4610;50.006;7.490;2023-04-15T07:02:45;4.03;;;1.40;;
9150;SDS011;4610;50.006;7.490;2023-04-15T07:05:12;2.80;;;1.47;;
9150;SDS011;4610;50.006;7.490;2023-04-15T07:07:38;3.93;;;1.40;;
9150;SDS011;4610;50.006;7.490;2023-04-15T07:10:08;2.93;;;1.37;;
9150;SDS011;4610;50.006;7.490;2023-04-15T07:12:36;4.33;;;1.80;;
9150;SDS011;4610;50.006;7.490;2023-04-15T07:15:03;3.20;;;1.83;;
9150;SDS011;4610;50.006;7.490;2023-04-15T07:17:30;5.07;;;1.80;;
9150;SDS011;4610;50.006;7.490;2023-04-15T07:19:57;2.33;;;1.73;;
9150;SDS011;4610;50.006;7.490;2023-04-15T07:22:24;2.30;;;1.50;;
9150;SDS011;4610;50.006;7.490;2023-04-15T07:24:51;2.37;;;1.50;;
9150;SDS011;4610;50.006;7.490;2023-04-15T07:27:19;2.30;;;1.20;;
9150;SDS011;4610;50.006;7.490;2023-04-15T07:29:46;1.63;;;1.33;;
9150;SDS011;4610;50.006;7.490;2023-04-15T07:32:13;1.77;;;1.40;;
9150;SDS011;4610;50.006;7.490;2023-04-15T07:34:39;5.17;;;1.50;;
9150;SDS011;4610;50.006;7.490;2023-04-15T07:37:07;3.40;;;1.50;;
9150;SDS011;4610;50.006;7.490;2023-04-15T07:39:33;2.47;;;1.60;;
9150;SDS011;4610;50.006;7.490;2023-04-15T07:42:01;4.37;;;2.10;;
9150;SDS011;4610;50.006;7.490;2023-04-15T07:44:29;6.70;;;4.30;;
9150;SDS011;4610;50.006;7.490;2023-04-15T07:46:56;4.10;;;1.90;;
9150;SDS011;4610;50.006;7.490;2023-04-15T07:49:23;2.70;;;1.40;;
9150;SDS011;4610;50.006;7.490;2023-04-15T07:51:49;5.13;;;1.90;;
9150;SDS011;4610;50.006;7.490;2023-04-15T07:54:16;2.63;;;1.60;;
9150;SDS011;4610;50.006;7.490;2023-04-15T07:56:43;3.43;;;1.60;;
9150;SDS011;4610;50.006;7.490;2023-04-15T07:59:10;3.73;;;1.53;;
9150;SDS011;4610;50.006;7.490;2023-04-15T08:01:38;7.57;;;1.97;;
9150;SDS011;4610;50.006;7.490;2023-04-15T08:04:05;5.43;;;2.00;;
9150;SDS011;4610;50.006;7.490;2023-04-15T08:06:32;4.83;;;2.17;;
9150;SDS011;4610;50.006;7.490;2023-04-15T08:08:58;7.47;;;2.47;;
9150;SDS011;4610;50.006;7.490;2023-04-15T08:11:25;8.87;;;2.27;;
9150;SDS011;4610;50.006;7.490;2023-04-15T08:13:52;5.67;;;1.97;;
9150;SDS011;4610;50.006;7.490;2023-04-15T08:16:20;4.20;;;2.23;;
9150;SDS011;4610;50.006;7.490;2023-04-15T08:18:50;18.67;;;2.17;;
9150;SDS011;4610;50.006;7.490;2023-04-15T08:21:18;6.10;;;2.30;;
9150;SDS011;4610;50.006;7.490;2023-04-15T08:23:46;5.87;;;1.90;;
9150;SDS011;4610;50.006;7.490;2023-04-15T08:26:14;5.10;;;1.60;;
9150;SDS011;4610;50.006;7.490;2023-04-15T08:28:42;4.17;;;1.93;;
9150;SDS011;4610;50.006;7.490;2023-04-15T08:31:10;5.70;;;1.70;;
9150;SDS011;4610;50.006;7.490;2023-04-15T08:33:37;3.87;;;1.37;;
9150;SDS011;4610;50.006;7.490;2023-04-15T08:36:06;4.93;;;1.30;;
9150;SDS011;4610;50.006;7.490;2023-04-15T08:38:33;5.83;;;1.77;;
9150;SDS011;4610;50.006;7.490;2023-04-15T08:41:01;4.97;;;1.53;;
9150;SDS011;4610;50.006;7.490;2023-04-15T08:43:32;8.03;;;1.83;;
9150;SDS011;4610;50.006;7.490;2023-04-15T08:46:00;3.83;;;1.43;;
9150;SDS011;4610;50.006;7.490;2023-04-15T08:48:27;4.87;;;1.73;;
9150;SDS011;4610;50.006;7.490;2023-04-15T08:50:57;4.37;;;1.40;;
9150;SDS011;4610;50.006;7.490;2023-04-15T08:53:27;2.57;;;1.53;;
9150;SDS011;4610;50.006;7.490;2023-04-15T08:55:54;5.87;;;1.80;;
9150;SDS011;4610;50.006;7.490;2023-04-15T08:58:23;4.53;;;1.90;;
9150;SDS011;4610;50.006;7.490;2023-04-15T09:00:50;3.63;;;2.17;;
9150;SDS011;4610;50.006;7.490;2023-04-15T09:03:17;4.40;;;1.80;;
9150;SDS011;4610;50.006;7.490;2023-04-15T09:05:45;4.93;;;1.77;;
9150;SDS011;4610;50.006;7.490;2023-04-15T09:08:13;5.57;;;2.03;;
9150;SDS011;4610;50.006;7.490;2023-04-15T09:10:41;3.77;;;1.80;;
9150;SDS011;4610;50.006;7.490;2023-04-15T09:13:08;3.57;;;1.50;;
9150;SDS011;4610;50.006;7.490;2023-04-15T09:15:35;4.13;;;1.93;;
9150;SDS011;4610;50.006;7.490;2023-04-15T09:18:03;7.43;;;2.37;;
9150;SDS011;4610;50.006;7.490;2023-04-15T09:20:30;5.37;;;1.93;;
9150;SDS011;4610;50.006;7.490;2023-04-15T09:23:10;6.10;;;2.33;;
9150;SDS011;4610;50.006;7.490;2023-04-15T09:25:38;3.50;;;1.90;;
9150;SDS011;4610;50.006;7.490;2023-04-15T09:28:07;5.73;;;2.03;;
9150;SDS011;4610;50.006;7.490;2023-04-15T09:30:34;6.87;;;2.50;;
9150;SDS011;4610;50.006;7.490;2023-04-15T09:33:02;6.07;;;2.80;;
9150;SDS011;4610;50.006;7.490;2023-04-15T09:35:32;3.93;;;2.20;;
9150;SDS011;4610;50.006;7.490;2023-04-15T09:38:03;3.80;;;2.27;;
9150;SDS011;4610;50.006;7.490;2023-04-15T09:40:31;4.73;;;2.60;;
9150;SDS011;4610;50.006;7.490;2023-04-15T09:43:01;4.63;;;2.53;;
9150;SDS011;4610;50.006;7.490;2023-04-15T09:45:29;6.20;;;2.30;;
9150;SDS011;4610;50.006;7.490;2023-04-15T09:47:57;3.33;;;2.20;;
9150;SDS011;4610;50.006;7.490;2023-04-15T09:50:26;5.27;;;2.10;;
9150;SDS011;4610;50.006;7.490;2023-04-15T09:52:54;7.67;;;2.33;;
9150;SDS011;4610;50.006;7.490;2023-04-15T09:55:21;5.13;;;2.50;;
9150;SDS011;4610;50.006;7.490;2023-04-15T09:57:48;3.97;;;2.10;;
9150;SDS011;4610;50.006;7.490;2023-04-15T10:00:16;3.20;;;2.10;;
9150;SDS011;4610;50.006;7.490;2023-04-15T10:02:43;6.57;;;2.83;;
9150;SDS011;4610;50.006;7.490;2023-04-15T10:05:12;5.03;;;2.60;;
9150;SDS011;4610;50.006;7.490;2023-04-15T10:07:40;4.53;;;2.63;;
9150;SDS011;4610;50.006;7.490;2023-04-15T10:10:08;5.20;;;2.50;;
9150;SDS011;4610;50.006;7.490;2023-04-15T10:12:36;5.70;;;2.37;;
9150;SDS011;4610;50.006;7.490;2023-04-15T10:15:04;8.20;;;2.80;;
9150;SDS011;4610;50.006;7.490;2023-04-15T10:17:33;3.27;;;2.63;;
9150;SDS011;4610;50.006;7.490;2023-04-15T10:20:01;3.93;;;2.30;;
9150;SDS011;4610;50.006;7.490;2023-04-15T10:22:29;3.00;;;2.20;;
9150;SDS011;4610;50.006;7.490;2023-04-15T10:24:56;3.27;;;2.50;;
9150;SDS011;4610;50.006;7.490;2023-04-15T10:27:24;3.73;;;2.30;;
9150;SDS011;4610;50.006;7.490;2023-04-15T10:29:53;2.87;;;2.00;;
9150;SDS011;4610;50.006;7.490;2023-04-15T10:32:20;2.87;;;2.27;;
9150;SDS011;4610;50.006;7.490;2023-04-15T10:34:48;3.17;;;2.50;;
9150;SDS011;4610;50.006;7.490;2023-04-15T10:37:19;4.97;;;2.97;;
9150;SDS011;4610;50.006;7.490;2023-04-15T10:39:47;3.63;;;2.87;;
9150;SDS011;4610;50.006;7.490;2023-04-15T10:42:15;7.33;;;2.90;;
9150;SDS011;4610;50.006;7.490;2023-04-15T10:44:43;3.33;;;2.73;;
9150;SDS011;4610;50.006;7.490;2023-04-15T10:47:13;4.37;;;2.43;;
9150;SDS011;4610;50.006;7.490;2023-04-15T10:49:44;4.33;;;2.57;;
9150;SDS011;4610;50.006;7.490;2023-04-15T10:52:13;3.20;;;2.43;;
9150;SDS011;4610;50.006;7.490;2023-04-15T10:54:41;4.30;;;2.57;;
9150;SDS011;4610;50.006;7.490;2023-04-15T10:57:14;4.60;;;2.40;;
9150;SDS011;4610;50.006;7.490;2023-04-15T10:59:59;4.70;;;2.50;;
9150;SDS011;4610;50.006;7.490;2023-04-15T11:02:40;5.20;;;2.60;;
9150;SDS011;4610;50.006;7.490;2023-04-15T11:05:08;7.50;;;2.57;;
9150;SDS011;4610;50.006;7.490;2023-04-15T11:07:37;3.27;;;2.27;;
9150;SDS011;4610;50.006;7.490;2023-04-15T11:13:23;6.13;;;2.37;;
9150;SDS011;4610;50.006;7.490;2023-04-15T11:15:56;7.00;;;2.40;;
9150;SDS011;4610;50.006;7.490;2023-04-15T11:18:28;5.47;;;2.57;;
9150;SDS011;4610;50.006;7.490;2023-04-15T11:20:57;6.17;;;2.20;;
9150;SDS011;4610;50.006;7.490;2023-04-15T11:23:28;3.93;;;2.20;;
9150;SDS011;4610;50.006;7.490;2023-04-15T11:25:57;4.50;;;2.40;;
9150;SDS011;4610;50.006;7.490;2023-04-15T11:28:25;4.10;;;2.10;;
9150;SDS011;4610;50.006;7.490;2023-04-15T11:30:53;4.23;;;2.30;;
9150;SDS011;4610;50.006;7.490;2023-04-15T11:33:20;4.10;;;1.90;;
9150;SDS011;4610;50.006;7.490;2023-04-15T11:35:48;3.70;;;2.07;;
9150;SDS011;4610;50.006;7.490;2023-04-15T11:38:15;4.07;;;2.30;;
9150;SDS011;4610;50.006;7.490;2023-04-15T11:40:43;5.13;;;2.40;;
9150;SDS011;4610;50.006;7.490;2023-04-15T11:43:11;3.53;;;2.30;;
9150;SDS011;4610;50.006;7.490;2023-04-15T11:45:47;3.47;;;2.60;;
9150;SDS011;4610;50.006;7.490;2023-04-15T11:48:16;3.10;;;2.70;;
9150;SDS011;4610;50.006;7.490;2023-04-15T11:50:44;4.50;;;2.60;;
9150;SDS011;4610;50.006;7.490;2023-04-15T11:53:11;5.17;;;2.50;;
9150;SDS011;4610;50.006;7.490;2023-04-15T11:55:43;5.57;;;3.00;;
9150;SDS011;4610;50.006;7.490;2023-04-15T11:58:12;4.67;;;2.67;;
9150;SDS011;4610;50.006;7.490;2023-04-15T12:00:40;2.97;;;2.30;;
9150;SDS011;4610;50.006;7.490;2023-04-15T12:03:12;6.33;;;2.73;;
9150;SDS011;4610;50.006;7.490;2023-04-15T12:06:02;4.73;;;2.23;;
9150;SDS011;4610;50.006;7.490;2023-04-15T12:11:18;3.33;;;1.70;;
9150;SDS011;4610;50.006;7.490;2023-04-15T12:13:46;3.67;;;2.00;;
9150;SDS011;4610;50.006;7.490;2023-04-15T12:16:15;4.73;;;1.87;;
9150;SDS011;4610;50.006;7.490;2023-04-15T12:18:43;2.23;;;1.70;;
9150;SDS011;4610;50.006;7.490;2023-04-15T12:21:11;2.30;;;1.63;;
9150;SDS011;4610;50.006;7.490;2023-04-15T12:23:38;3.47;;;1.87;;
9150;SDS011;4610;50.006;7.490;2023-04-15T12:26:12;2.00;;;1.30;;
9150;SDS011;4610;50.006;7.490;2023-04-15T12:28:40;1.40;;;1.30;;
9150;SDS011;4610;50.006;7.490;2023-04-15T12:31:08;5.33;;;1.70;;
9150;SDS011;4610;50.006;7.490;2023-04-15T12:33:35;2.33;;;1.47;;
9150;SDS011;4610;50.006;7.490;2023-04-15T12:36:02;2.53;;;1.77;;
9150;SDS011;4610;50.006;7.490;2023-04-15T12:38:29;5.83;;;2.10;;
9150;SDS011;4610;50.006;7.490;2023-04-15T12:40:56;2.10;;;1.80;;
9150;SDS011;4610;50.006;7.490;2023-04-15T12:43:23;4.20;;;1.87;;
9150;SDS011;4610;50.006;7.490;2023-04-15T12:45:52;2.03;;;1.83;;
9150;SDS011;4610;50.006;7.490;2023-04-15T12:48:19;2.00;;;1.33;;
9150;SDS011;4610;50.006;7.490;2023-04-15T12:50:46;3.80;;;1.50;;
9150;SDS011;4610;50.006;7.490;2023-04-15T12:53:12;1.80;;;1.40;;
9150;SDS011;4610;50.006;7.490;2023-04-15T12:55:39;2.80;;;1.40;;
9150;SDS011;4610;50.006;7.490;2023-04-15T12:58:06;4.03;;;1.63;;
9150;SDS011;4610;50.006;7.490;2023-04-15T13:00:33;1.63;;;1.50;;
9150;SDS011;4610;50.006;7.490;2023-04-15T13:03:01;1.40;;;1.30;;
9150;SDS011;4610;50.006;7.490;2023-04-15T13:05:28;2.30;;;1.27;;
9150;SDS011;4610;50.006;7.490;2023-04-15T13:07:55;1.90;;;1.30;;
9150;SDS011;4610;50.006;7.490;2023-04-15T13:10:22;6.40;;;1.20;;
9150;SDS011;4610;50.006;7.490;2023-04-15T13:12:49;1.27;;;1.10;;
9150;SDS011;4610;50.006;7.490;2023-04-15T13:15:17;1.70;;;1.30;;
9150;SDS011;4610;50.006;7.490;2023-04-15T13:17:45;1.50;;;1.40;;
9150;SDS011;4610;50.006;7.490;2023-04-15T13:20:13;2.10;;;1.70;;
9150;SDS011;4610;50.006;7.490;2023-04-15T13:22:40;1.60;;;1.10;;
9150;SDS011;4610;50.006;7.490;2023-04-15T13:25:07;3.00;;;1.40;;
9150;SDS011;4610;50.006;7.490;2023-04-15T13:27:34;2.30;;;1.70;;
9150;SDS011;4610;50.006;7.490;2023-04-15T13:30:01;4.60;;;1.50;;
9150;SDS011;4610;50.006;7.490;2023-04-15T13:32:28;4.63;;;2.00;;
9150;SDS011;4610;50.006;7.490;2023-04-15T13:34:55;1.83;;;1.60;;
9150;SDS011;4610;50.006;7.490;2023-04-15T13:37:26;2.27;;;1.77;;
9150;SDS011;4610;50.006;7.490;2023-04-15T13:39:53;2.07;;;1.70;;
9150;SDS011;4610;50.006;7.490;2023-04-15T13:42:20;2.00;;;1.80;;
9150;SDS011;4610;50.006;7.490;2023-04-15T13:44:48;3.43;;;1.70;;
9150;SDS011;4610;50.006;7.490;2023-04-15T13:47:15;3.40;;;1.70;;
9150;SDS011;4610;50.006;7.490;2023-04-15T13:49:42;2.73;;;2.30;;
9150;SDS011;4610;50.006;7.490;2023-04-15T13:52:09;3.73;;;2.30;;
9150;SDS011;4610;50.006;7.490;2023-04-15T13:54:37;2.87;;;2.50;;
9150;SDS011;4610;50.006;7.490;2023-04-15T13:57:05;2.47;;;2.17;;
9150;SDS011;4610;50.006;7.490;2023-04-15T13:59:31;3.10;;;2.53;;
9150;SDS011;4610;50.006;7.490;2023-04-15T14:01:58;3.07;;;2.60;;
9150;SDS011;4610;50.006;7.490;2023-04-15T14:04:25;3.53;;;2.53;;
9150;SDS011;4610;50.006;7.490;2023-04-15T14:06:52;3.37;;;2.67;;
9150;SDS011;4610;50.006;7.490;2023-04-15T14:09:19;3.93;;;2.67;;
9150;SDS011;4610;50.006;7.490;2023-04-15T14:11:49;2.53;;;2.17;;
9150;SDS011;4610;50.006;7.490;2023-04-15T14:14:16;2.93;;;2.60;;
9150;SDS011;4610;50.006;7.490;2023-04-15T14:16:42;3.07;;;2.60;;
9150;SDS011;4610;50.006;7.490;2023-04-15T14:19:09;3.30;;;2.63;;
9150;SDS011;4610;50.006;7.490;2023-04-15T14:21:36;2.40;;;2.20;;
9150;SDS011;4610;50.006;7.490;2023-04-15T14:24:03;4.13;;;2.40;;
9150;SDS011;4610;50.006;7.490;2023-04-15T14:26:30;3.10;;;2.40;;
9150;SDS011;4610;50.006;7.490;2023-04-15T14:28:58;3.37;;;2.50;;
9150;SDS011;4610;50.006;7.490;2023-04-15T14:31:25;2.73;;;2.47;;
9150;SDS011;4610;50.006;7.490;2023-04-15T14:33:52;2.97;;;2.60;;
9150;SDS011;4610;50.006;7.490;2023-04-15T14:36:19;4.27;;;2.50;;
9150;SDS011;4610;50.006;7.490;2023-04-15T14:38:45;2.97;;;2.50;;
9150;SDS011;4610;50.006;7.490;2023-04-15T14:41:12;3.10;;;2.80;;
9150;SDS011;4610;50.006;7.490;2023-04-15T14:43:40;4.67;;;2.67;;
9150;SDS011;4610;50.006;7.490;2023-04-15T14:46:08;2.93;;;2.63;;
9150;SDS011;4610;50.006;7.490;2023-04-15T14:48:35;2.57;;;2.37;;
9150;SDS011;4610;50.006;7.490;2023-04-15T14:51:02;3.07;;;2.33;;
9150;SDS011;4610;50.006;7.490;2023-04-15T14:53:29;3.80;;;2.40;;
9150;SDS011;4610;50.006;7.490;2023-04-15T14:55:56;2.93;;;2.50;;
9150;SDS011;4610;50.006;7.490;2023-04-15T14:58:23;2.97;;;2.67;;
9150;SDS011;4610;50.006;7.490;2023-04-15T15:00:49;2.93;;;2.63;;
9150;SDS011;4610;50.006;7.490;2023-04-15T15:03:18;3.60;;;2.90;;
9150;SDS011;4610;50.006;7.490;2023-04-15T15:05:45;3.70;;;2.93;;
9150;SDS011;4610;50.006;7.490;2023-04-15T15:08:12;3.00;;;2.70;;
9150;SDS011;4610;50.006;7.490;2023-04-15T15:10:39;3.27;;;2.80;;
9150;SDS011;4610;50.006;7.490;2023-04-15T15:13:07;3.30;;;3.00;;
9150;SDS011;4610;50.006;7.490;2023-04-15T15:15:35;3.33;;;2.47;;
9150;SDS011;4610;50.006;7.490;2023-04-15T15:18:03;4.30;;;3.10;;
9150;SDS011;4610;50.006;7.490;2023-04-15T15:20:31;3.20;;;2.90;;
9150;SDS011;4610;50.006;7.490;2023-04-15T15:22:59;3.93;;;3.33;;